Time;durP1;ratioP1;P1;durP2;ratioP2;P2;SDS_P1;SDS_P2;PMS_P1;PMS_P2;Temp;Humidity;BMP_temperature;BMP_pressure;BME280_temperature;BME280_humidity;BME280_pressure;Samples;Min_cycle;Max_cycle;Signal;HPM_P1;HPM_P2
2023/03/24 00:01:45;;;;;;;20.20;8.53;;;13.40;99.90;;;;;;4412102;28;658344;-67
2023/03/24 00:04:33;;;;;;;16.97;8.03;;;13.40;99.90;;;;;;4417850;28;659505;-67
2023/03/24 00:07:22;;;;;;;12.63;7.23;;;13.40;99.90;;;;;;4402740;28;658750;-67
2023/03/24 00:10:10;;;;;;;17.80;8.00;;;13.40;99.90;;;;;;4436885;28;658918;-67
2023/03/24 00:12:58;;;;;;;20.07;8.83;;;13.30;99.90;;;;;;4419156;28;659184;-67
2023/03/24 00:15:47;;;;;;;19.70;8.03;;;13.30;99.90;;;;;;4402212;28;658939;-67
2023/03/24 00:18:35;;;;;;;23.70;10.20;;;13.30;99.90;;;;;;4421643;28;659444;-67
2023/03/24 00:21:24;;;;;;;17.60;8.27;;;13.30;99.90;;;;;;4410088;28;660364;-67
2023/03/24 00:24:11;;;;;;;26.83;11.10;;;13.30;99.90;;;;;;4398542;28;659035;-67
2023/03/24 00:26:59;;;;;;;24.83;11.80;;;13.30;99.90;;;;;;4433933;28;660091;-67
2023/03/24 00:29:47;;;;;;;18.60;9.27;;;13.20;99.90;;;;;;4396011;28;660874;-67
2023/03/24 00:32:37;;;;;;;19.27;8.83;;;13.20;99.90;;;;;;4415472;28;658155;-67
2023/03/24 00:35:24;;;;;;;16.90;8.43;;;13.20;99.90;;;;;;4406950;28;659732;-67
2023/03/24 00:38:12;;;;;;;18.23;7.40;;;13.20;99.90;;;;;;4412275;28;659804;-67
2023/03/24 00:40:59;;;;;;;16.25;7.05;;;13.20;99.90;;;;;;4416450;28;658558;-67
2023/03/24 00:43:46;;;;;;;15.50;6.67;;;13.30;99.90;;;;;;4403295;28;658639;-67
2023/03/24 00:46:34;;;;;;;13.10;6.10;;;13.30;99.90;;;;;;4433248;28;658107;-67
2023/03/24 00:49:40;;;;;;;12.77;6.90;;;13.20;99.90;;;;;;4410768;28;659175;-67
2023/03/24 00:52:32;;;;;;;12.17;6.40;;;13.20;99.90;;;;;;4384054;28;659802;-67
2023/03/24 00:55:20;;;;;;;13.30;6.50;;;13.20;99.90;;;;;;4403097;28;659001;-67
2023/03/24 00:58:07;;;;;;;12.53;6.63;;;13.20;99.90;;;;;;4389458;28;659956;-67
2023/03/24 01:00:56;;;;;;;19.83;6.80;;;13.20;99.90;;;;;;4418309;28;658963;-67
2023/03/24 01:03:49;;;;;;;11.50;6.23;;;13.20;99.90;;;;;;4396766;28;658895;-67
2023/03/24 01:06:38;;;;;;;19.73;7.47;;;13.30;99.90;;;;;;4387754;28;659120;-67
2023/03/24 01:09:25;;;;;;;15.37;7.20;;;13.20;99.90;;;;;;4410652;28;658742;-67
2023/03/24 01:12:12;;;;;;;13.67;6.73;;;13.20;99.90;;;;;;4436073;28;658711;-67
2023/03/24 01:15:01;;;;;;;13.97;7.47;;;13.10;99.90;;;;;;4434903;28;658428;-67
2023/03/24 01:17:48;;;;;;;16.80;7.03;;;13.00;99.90;;;;;;4432542;28;659391;-67
2023/03/24 01:20:36;;;;;;;15.23;6.97;;;13.00;99.90;;;;;;4418230;28;658651;-67
2023/03/24 01:23:25;;;;;;;13.07;7.03;;;12.90;99.90;;;;;;4439564;28;659397;-67
2023/03/24 01:26:12;;;;;;;13.83;6.90;;;12.90;99.90;;;;;;4416450;28;659426;-67
2023/03/24 01:29:00;;;;;;;17.77;7.50;;;13.00;99.90;;;;;;4434131;28;658659;-67
2023/03/24 01:31:47;;;;;;;12.50;6.47;;;13.00;99.90;;;;;;4433613;28;659288;-67
2023/03/24 01:34:35;;;;;;;15.03;7.20;;;13.00;99.90;;;;;;4440312;28;659027;-67
2023/03/24 01:37:23;;;;;;;14.87;7.03;;;13.00;99.90;;;;;;4413548;28;659423;-67
2023/03/24 01:40:15;;;;;;;19.10;7.10;;;13.10;99.90;;;;;;4421814;28;658574;-67
2023/03/24 01:43:03;;;;;;;13.35;7.53;;;13.10;99.90;;;;;;4410950;28;658984;-67
2023/03/24 01:46:13;;;;;;;14.13;6.53;;;13.10;99.90;;;;;;4423284;28;658405;-67
2023/03/24 01:49:02;;;;;;;14.70;7.22;;;13.00;99.90;;;;;;4413425;28;658624;-67
2023/03/24 01:51:52;;;;;;;13.60;7.17;;;13.00;99.90;;;;;;4428950;28;658059;-67
2023/03/24 01:54:41;;;;;;;13.70;6.80;;;13.10;99.90;;;;;;4398339;28;660323;-67
2023/03/24 01:57:31;;;;;;;15.03;6.40;;;13.00;99.90;;;;;;4409797;28;659405;-67
2023/03/24 02:00:19;;;;;;;16.47;6.30;;;13.00;99.90;;;;;;4397577;28;659273;-67
2023/03/24 02:03:08;;;;;;;15.47;6.40;;;13.10;99.90;;;;;;4416562;28;658546;-67
2023/03/24 02:05:56;;;;;;;16.20;6.90;;;13.00;99.90;;;;;;4404067;28;659070;-67
2023/03/24 02:08:47;;;;;;;13.67;6.67;;;13.00;99.90;;;;;;4427338;28;659269;-67
2023/03/24 02:11:35;;;;;;;13.20;6.53;;;13.10;99.90;;;;;;4418081;28;658325;-67
2023/03/24 02:14:23;;;;;;;13.10;6.80;;;13.00;99.90;;;;;;4400130;28;659650;-67
2023/03/24 02:17:34;;;;;;;10.77;6.43;;;13.00;99.90;;;;;;4402551;28;659117;-67
2023/03/24 02:20:49;;;;;;;11.53;6.47;;;13.00;99.90;;;;;;4382598;28;658559;-67
2023/03/24 02:24:18;;;;;;;10.07;6.27;;;13.00;99.90;;;;;;4374771;28;658937;-67
2023/03/24 02:27:09;;;;;;;15.10;7.03;;;12.90;99.90;;;;;;4383918;28;659146;-67
2023/03/24 02:30:33;;;;;;;15.67;7.60;;;13.00;99.90;;;;;;4408965;28;658864;-67
2023/03/24 02:33:47;;;;;;;11.90;6.23;;;13.00;99.90;;;;;;4392161;28;658803;-67
2023/03/24 02:36:47;;;;;;;14.17;6.70;;;13.00;99.90;;;;;;4398574;28;659026;-67
2023/03/24 02:39:56;;;;;;;12.00;6.33;;;12.90;99.90;;;;;;4416217;28;659050;-67
2023/03/24 02:42:49;;;;;;;13.97;6.33;;;12.80;99.90;;;;;;4399166;28;659195;-67
2023/03/24 02:45:37;;;;;;;13.10;6.50;;;12.70;99.90;;;;;;4402197;28;658516;-66
2023/03/24 02:48:27;;;;;;;16.07;6.50;;;12.70;99.90;;;;;;4418026;28;660180;-67
2023/03/24 02:51:16;;;;;;;52.20;12.17;;;12.60;99.90;;;;;;4413517;28;658785;-67
2023/03/24 02:54:07;;;;;;;39.57;10.40;;;12.60;99.90;;;;;;4404439;28;660172;-67
2023/03/24 02:56:57;;;;;;;31.03;9.83;;;12.60;99.90;;;;;;4403899;28;660002;-67
2023/03/24 02:59:45;;;;;;;43.90;12.40;;;12.60;99.90;;;;;;4417880;28;658724;-67
2023/03/24 03:02:33;;;;;;;48.40;12.90;;;12.50;99.90;;;;;;4413286;28;660734;-67
2023/03/24 03:05:22;;;;;;;42.70;12.07;;;12.50;99.90;;;;;;4426482;28;660156;-67
2023/03/24 03:08:10;;;;;;;32.90;9.80;;;12.40;99.90;;;;;;4434626;28;659362;-67
2023/03/24 03:10:58;;;;;;;24.60;8.17;;;12.40;99.90;;;;;;4427024;28;659066;-67
2023/03/24 03:13:49;;;;;;;20.00;7.47;;;12.40;99.90;;;;;;4419628;28;658821;-67
2023/03/24 03:16:38;;;;;;;16.13;7.20;;;12.40;99.90;;;;;;4419166;28;658660;-67
2023/03/24 03:19:33;;;;;;;19.87;6.43;;;12.30;99.90;;;;;;4416759;28;658337;-67
2023/03/24 03:22:22;;;;;;;14.67;5.87;;;12.30;99.90;;;;;;4395434;28;659178;-67
2023/03/24 03:25:10;;;;;;;13.77;6.40;;;12.30;99.90;;;;;;4437185;28;659323;-67
2023/03/24 03:27:59;;;;;;;26.83;9.47;;;12.20;99.90;;;;;;4393959;28;659632;-67
2023/03/24 03:30:50;;;;;;;15.43;6.57;;;12.20;99.90;;;;;;4416899;28;660656;-67
2023/03/24 03:33:38;;;;;;;19.07;6.77;;;12.20;99.90;;;;;;4417837;28;659547;-67
2023/03/24 03:36:27;;;;;;;31.40;9.67;;;12.20;99.90;;;;;;4413038;28;658520;-67
2023/03/24 03:39:16;;;;;;;13.07;6.30;;;12.20;99.90;;;;;;4431219;28;658720;-67
2023/03/24 03:42:03;;;;;;;11.87;5.77;;;12.10;99.90;;;;;;4418378;28;659395;-67
2023/03/24 03:44:50;;;;;;;16.67;6.60;;;12.10;99.90;;;;;;4416853;28;658713;-66
2023/03/24 03:47:39;;;;;;;18.97;6.33;;;12.00;99.90;;;;;;4428779;28;659698;-67
2023/03/24 03:50:27;;;;;;;20.87;8.07;;;12.00;99.90;;;;;;4378585;28;660501;-67
2023/03/24 03:53:15;;;;;;;15.70;6.60;;;12.00;99.90;;;;;;4404486;28;658447;-67
2023/03/24 03:56:03;;;;;;;17.60;6.87;;;12.00;99.90;;;;;;4393265;28;658786;-67
2023/03/24 03:58:52;;;;;;;19.03;7.17;;;12.00;99.90;;;;;;4394164;28;658768;-67
2023/03/24 04:01:40;;;;;;;23.20;6.50;;;12.00;99.90;;;;;;4398433;28;658481;-67
2023/03/24 04:04:57;;;;;;;18.13;6.77;;;11.90;99.90;;;;;;4390097;28;660304;-67
2023/03/24 04:08:02;;;;;;;14.53;6.17;;;11.80;99.90;;;;;;4416993;28;658661;-67
2023/03/24 04:11:05;;;;;;;16.57;6.07;;;11.80;99.90;;;;;;4382002;28;659011;-67
2023/03/24 04:13:58;;;;;;;17.17;6.93;;;11.80;99.90;;;;;;4360616;28;658704;-67
2023/03/24 04:16:51;;;;;;;15.07;6.67;;;11.80;99.90;;;;;;4361614;28;659531;-67
2023/03/24 04:19:47;;;;;;;12.83;5.33;;;11.80;99.90;;;;;;4387724;28;659516;-67
2023/03/24 04:22:40;;;;;;;13.40;5.40;;;11.70;99.90;;;;;;4387784;28;659719;-67
2023/03/24 04:25:30;;;;;;;16.57;5.40;;;11.70;99.90;;;;;;4355311;28;660056;-66
2023/03/24 04:28:19;;;;;;;8.57;5.10;;;11.70;99.90;;;;;;4381025;28;659114;-67
2023/03/24 04:31:08;;;;;;;9.70;5.40;;;11.70;99.90;;;;;;4393418;28;657723;-67
2023/03/24 04:34:02;;;;;;;15.27;5.73;;;11.70;99.90;;;;;;4383878;28;657630;-67
2023/03/24 04:36:53;;;;;;;11.50;5.77;;;11.70;99.90;;;;;;4398733;28;659108;-67
2023/03/24 04:39:42;;;;;;;20.50;6.33;;;11.60;99.90;;;;;;4362944;28;659880;-67
2023/03/24 04:42:32;;;;;;;13.83;6.67;;;11.60;99.90;;;;;;4403677;28;658727;-67
2023/03/24 04:45:24;;;;;;;17.03;7.50;;;11.60;99.90;;;;;;4375260;28;659302;-67
2023/03/24 04:48:12;;;;;;;14.73;8.23;;;11.60;99.90;;;;;;4381866;28;658763;-67
2023/03/24 04:51:00;;;;;;;28.00;11.93;;;11.50;99.90;;;;;;4410746;28;658431;-67
2023/03/24 04:53:49;;;;;;;13.43;6.90;;;11.40;99.90;;;;;;4397588;28;659873;-67
2023/03/24 04:56:39;;;;;;;15.17;7.80;;;11.40;99.90;;;;;;4388778;28;658319;-67
2023/03/24 04:59:26;;;;;;;11.23;7.43;;;11.40;99.90;;;;;;4382745;28;658651;-67
2023/03/24 05:02:14;;;;;;;17.93;8.80;;;11.30;99.90;;;;;;4412324;28;658466;-67
2023/03/24 05:05:02;;;;;;;18.98;8.88;;;11.30;99.90;;;;;;4391218;28;659156;-67
2023/03/24 05:07:49;;;;;;;19.27;9.30;;;11.20;99.90;;;;;;4412798;28;658339;-67
2023/03/24 05:10:38;;;;;;;16.70;8.37;;;11.10;99.90;;;;;;4400985;28;658850;-67
2023/03/24 05:13:25;;;;;;;15.87;7.77;;;11.10;99.90;;;;;;4386994;28;659102;-67
2023/03/24 05:16:12;;;;;;;19.37;8.47;;;11.10;99.90;;;;;;4417784;28;660034;-67
2023/03/24 05:19:00;;;;;;;15.60;8.50;;;11.10;99.90;;;;;;4409985;28;658369;-67
2023/03/24 05:21:48;;;;;;;20.93;11.00;;;11.10;99.90;;;;;;4419861;28;659642;-67
2023/03/24 05:24:35;;;;;;;22.57;10.83;;;11.10;99.90;;;;;;4411212;28;659857;-67
2023/03/24 05:27:24;;;;;;;18.47;9.17;;;11.00;99.90;;;;;;4412672;28;660719;-67
2023/03/24 05:30:12;;;;;;;14.98;8.93;;;11.00;99.90;;;;;;4390891;28;658676;-67
2023/03/24 05:32:59;;;;;;;16.20;9.00;;;11.00;99.90;;;;;;4405660;28;658810;-67
2023/03/24 05:35:46;;;;;;;17.97;9.73;;;11.10;99.90;;;;;;4390631;28;658597;-67
2023/03/24 05:38:33;;;;;;;21.73;10.97;;;11.00;99.90;;;;;;4418058;28;659220;-67
2023/03/24 05:41:21;;;;;;;20.73;10.93;;;11.00;99.90;;;;;;4397630;28;659811;-67
2023/03/24 05:44:09;;;;;;;22.97;12.50;;;11.10;99.90;;;;;;4416091;28;659918;-67
2023/03/24 05:46:57;;;;;;;19.87;12.13;;;11.10;99.90;;;;;;4398936;28;659814;-67
2023/03/24 05:49:44;;;;;;;23.33;12.57;;;11.10;99.90;;;;;;4436963;28;660991;-67
2023/03/24 05:52:32;;;;;;;17.90;9.57;;;11.10;99.90;;;;;;4407758;28;659495;-67
2023/03/24 05:55:19;;;;;;;21.10;11.67;;;11.10;99.90;;;;;;4431102;28;658311;-67
2023/03/24 05:58:06;;;;;;;22.87;12.83;;;11.20;99.90;;;;;;4411846;28;660024;-67
2023/03/24 06:00:55;;;;;;;20.47;11.80;;;11.30;99.90;;;;;;4435751;28;660810;-67
2023/03/24 06:03:43;;;;;;;21.27;12.20;;;11.30;99.90;;;;;;4411540;28;660046;-67
2023/03/24 06:06:30;;;;;;;22.77;13.13;;;11.40;99.90;;;;;;4416362;28;660029;-67
2023/03/24 06:09:18;;;;;;;18.77;11.43;;;11.60;99.90;;;;;;4436323;28;659424;-67
2023/03/24 06:12:05;;;;;;;17.97;10.00;;;11.70;99.90;;;;;;4412887;28;659921;-67
2023/03/24 06:14:53;;;;;;;22.43;10.93;;;11.80;99.90;;;;;;4439107;28;660076;-67
2023/03/24 06:17:43;;;;;;;16.67;11.20;;;11.90;99.90;;;;;;4425809;28;660618;-67
2023/03/24 06:20:30;;;;;;;17.47;11.30;;;12.00;99.90;;;;;;4420320;28;661257;-67
2023/03/24 06:23:17;;;;;;;17.77;11.30;;;12.10;99.90;;;;;;4431068;28;659942;-67
2023/03/24 06:26:08;;;;;;;15.90;10.80;;;12.20;99.90;;;;;;4426019;28;659584;-68
2023/03/24 06:28:55;;;;;;;19.50;12.33;;;12.30;99.90;;;;;;4417655;28;660688;-67
2023/03/24 06:31:42;;;;;;;21.37;12.53;;;12.40;99.90;;;;;;4439054;28;660294;-67
2023/03/24 06:34:32;;;;;;;19.03;11.90;;;12.50;99.90;;;;;;4436750;28;660174;-67
2023/03/24 06:37:19;;;;;;;21.47;12.90;;;12.60;99.90;;;;;;4422302;28;659620;-67
2023/03/24 06:40:12;;;;;;;20.97;13.33;;;12.70;99.90;;;;;;4413414;28;659419;-67
2023/03/24 06:42:59;;;;;;;21.53;14.20;;;12.80;99.90;;;;;;4416724;28;660056;-67
2023/03/24 06:45:46;;;;;;;26.17;14.27;;;13.00;99.90;;;;;;4419652;28;659974;-67
2023/03/24 06:48:33;;;;;;;22.77;14.33;;;13.20;99.90;;;;;;4435642;28;660753;-67
2023/03/24 06:51:22;;;;;;;22.93;14.70;;;13.40;99.90;;;;;;4419807;28;660254;-67
2023/03/24 06:54:09;;;;;;;23.53;13.73;;;13.70;99.90;;;;;;4435027;28;659568;-67
2023/03/24 06:56:57;;;;;;;20.47;12.57;;;13.90;99.90;;;;;;4419843;28;659679;-67
2023/03/24 06:59:45;;;;;;;19.50;11.90;;;14.30;99.90;;;;;;4436685;28;659625;-67
2023/03/24 07:02:34;;;;;;;25.93;12.00;;;14.50;99.90;;;;;;4414926;28;661286;-67
2023/03/24 07:05:21;;;;;;;18.13;11.30;;;14.80;99.90;;;;;;4426624;28;659922;-67
2023/03/24 07:08:10;;;;;;;16.90;11.07;;;14.90;99.90;;;;;;4436889;28;660799;-67
2023/03/24 07:10:58;;;;;;;22.50;11.63;;;14.80;99.90;;;;;;4407034;28;660646;-67
2023/03/24 07:13:45;;;;;;;21.23;11.50;;;14.70;99.90;;;;;;4421330;28;659701;-67
2023/03/24 07:16:33;;;;;;;22.57;11.73;;;14.70;99.90;;;;;;4440186;28;659731;-67
2023/03/24 07:19:21;;;;;;;20.33;10.97;;;14.60;99.90;;;;;;4424983;28;659837;-67
2023/03/24 07:22:08;;;;;;;20.57;11.27;;;14.60;99.90;;;;;;4434995;28;660255;-67
2023/03/24 07:25:00;;;;;;;17.80;9.93;;;14.60;99.90;;;;;;4401555;28;660560;-68
2023/03/24 07:27:47;;;;;;;16.67;10.30;;;14.60;99.90;;;;;;4411595;28;658807;-66
2023/03/24 07:30:35;;;;;;;17.67;10.93;;;14.70;99.90;;;;;;4426687;28;659294;-67
2023/03/24 07:33:23;;;;;;;15.60;10.20;;;14.70;99.90;;;;;;4411735;28;659616;-66
2023/03/24 07:36:11;;;;;;;16.97;9.80;;;14.90;99.90;;;;;;4400515;28;659606;-67
2023/03/24 07:38:58;;;;;;;13.43;9.03;;;14.90;99.90;;;;;;4423228;28;659766;-67
2023/03/24 07:41:47;;;;;;;16.03;9.23;;;15.00;99.90;;;;;;4412596;28;659238;-67
2023/03/24 07:44:34;;;;;;;14.73;9.27;;;15.20;99.90;;;;;;4430641;28;658485;-67
2023/03/24 07:47:21;;;;;;;16.93;8.87;;;15.20;99.90;;;;;;4412928;28;659001;-67
2023/03/24 07:50:10;;;;;;;16.57;9.20;;;15.40;99.90;;;;;;4434436;28;659222;-66
2023/03/24 07:52:57;;;;;;;14.67;9.03;;;15.40;99.90;;;;;;4396069;28;659093;-66
2023/03/24 07:55:44;;;;;;;18.10;8.77;;;15.50;99.90;;;;;;4416807;28;658739;-67
2023/03/24 07:58:33;;;;;;;16.13;8.80;;;15.60;99.90;;;;;;4406150;28;659503;-67
2023/03/24 08:01:20;;;;;;;17.50;8.97;;;15.60;99.90;;;;;;4420359;28;658928;-67
2023/03/24 08:04:07;;;;;;;14.13;8.13;;;15.70;99.90;;;;;;4439141;28;659310;-66
2023/03/24 08:06:56;;;;;;;15.30;9.00;;;15.80;99.90;;;;;;4439394;28;658447;-66
2023/03/24 08:09:43;;;;;;;16.77;8.53;;;16.00;99.90;;;;;;4408195;28;659091;-67
2023/03/24 08:12:30;;;;;;;13.73;8.20;;;16.10;99.90;;;;;;4413285;28;663627;-67
2023/03/24 08:15:20;;;;;;;13.33;8.80;;;16.40;99.90;;;;;;4426728;28;660226;-67
2023/03/24 08:18:07;;;;;;;12.33;7.90;;;16.50;99.90;;;;;;4412445;28;659235;-67
2023/03/24 08:20:55;;;;;;;13.37;8.13;;;16.50;99.90;;;;;;4436283;28;658311;-67
2023/03/24 08:23:43;;;;;;;13.47;8.30;;;16.70;99.90;;;;;;4413802;28;659645;-66
2023/03/24 08:26:33;;;;;;;12.30;8.17;;;16.70;99.90;;;;;;4419202;28;658493;-67
2023/03/24 08:29:21;;;;;;;13.43;8.37;;;17.10;99.90;;;;;;4415528;28;658456;-67
2023/03/24 08:32:09;;;;;;;12.75;8.00;;;17.50;99.90;;;;;;4435964;28;659490;-67
2023/03/24 08:34:57;;;;;;;14.90;7.57;;;17.90;99.90;;;;;;4382918;28;658551;-67
2023/03/24 08:37:45;;;;;;;14.73;8.80;;;17.70;99.90;;;;;;4433991;28;658854;-66
2023/03/24 08:40:33;;;;;;;14.73;7.73;;;17.40;99.90;;;;;;4403276;28;658758;-66
2023/03/24 08:43:22;;;;;;;31.23;11.90;;;17.50;99.90;;;;;;4409814;28;658494;-67
2023/03/24 08:46:09;;;;;;;15.97;7.90;;;17.50;99.90;;;;;;4421480;28;660139;-66
2023/03/24 08:48:58;;;;;;;12.80;7.47;;;17.60;99.90;;;;;;4416938;28;658824;-67
2023/03/24 08:51:45;;;;;;;11.30;6.85;;;17.70;99.90;;;;;;4411469;28;658579;-67
2023/03/24 08:54:33;;;;;;;11.60;7.30;;;17.80;99.90;;;;;;4432361;28;659438;-67
2023/03/24 08:57:21;;;;;;;13.37;7.23;;;17.80;99.90;;;;;;4423784;28;658808;-67
2023/03/24 09:00:14;;;;;;;13.33;7.67;;;17.80;99.90;;;;;;4431147;28;659107;-67
2023/03/24 09:03:01;;;;;;;10.18;6.88;;;17.90;99.90;;;;;;4400956;28;658898;-66
2023/03/24 09:05:50;;;;;;;24.27;9.40;;;17.70;99.90;;;;;;4431410;28;659406;-66
2023/03/24 09:08:37;;;;;;;17.40;9.37;;;17.60;99.90;;;;;;4412519;28;659221;-67
2023/03/24 09:11:24;;;;;;;14.07;8.35;;;17.40;99.90;;;;;;4427293;28;659361;-66
2023/03/24 09:14:12;;;;;;;16.33;8.30;;;17.50;99.90;;;;;;4417016;28;658577;-67
2023/03/24 09:16:59;;;;;;;12.17;7.77;;;17.80;99.90;;;;;;4430536;28;657892;-67
2023/03/24 09:19:46;;;;;;;15.73;8.43;;;18.10;99.90;;;;;;4411871;28;658773;-67
2023/03/24 09:22:36;;;;;;;14.17;8.40;;;18.10;99.90;;;;;;4433047;28;658570;-67
2023/03/24 09:25:24;;;;;;;12.67;8.10;;;17.90;99.90;;;;;;4417149;28;660097;-67
2023/03/24 09:28:13;;;;;;;13.27;7.97;;;18.00;99.90;;;;;;4416369;28;658439;-67
2023/03/24 09:31:01;;;;;;;17.33;8.17;;;18.20;99.90;;;;;;4417775;28;658823;-67
2023/03/24 09:33:48;;;;;;;15.83;7.87;;;18.30;99.90;;;;;;4436682;28;659774;-67
2023/03/24 09:36:35;;;;;;;14.97;7.43;;;18.60;99.90;;;;;;4406063;28;658967;-67
2023/03/24 09:39:24;;;;;;;12.50;7.30;;;18.80;99.40;;;;;;4442544;28;661464;-67
2023/03/24 09:42:15;;;;;;;9.83;7.07;;;18.90;99.90;;;;;;4418013;28;658824;-67
2023/03/24 09:45:05;;;;;;;10.20;7.13;;;19.00;99.40;;;;;;4425043;28;658277;-67
2023/03/24 09:47:54;;;;;;;11.10;7.60;;;19.40;99.90;;;;;;4424508;28;659798;-67
2023/03/24 09:50:43;;;;;;;12.57;8.13;;;19.90;98.00;;;;;;4419788;28;658788;-66
2023/03/24 09:53:33;;;;;;;10.30;7.22;;;20.00;92.40;;;;;;4414797;28;659265;-67
2023/03/24 09:56:22;;;;;;;11.10;7.73;;;19.30;92.10;;;;;;4411692;28;659001;-67
2023/03/24 09:59:14;;;;;;;11.03;7.30;;;19.30;92.40;;;;;;4433575;28;658849;-67
2023/03/24 10:02:01;;;;;;;11.97;6.67;;;19.50;92.90;;;;;;4416230;28;658518;-67
2023/03/24 10:04:48;;;;;;;10.32;6.25;;;19.90;91.90;;;;;;4440542;28;659558;-67
2023/03/24 10:07:38;;;;;;;11.13;6.30;;;20.30;90.10;;;;;;4414629;28;658635;-67
2023/03/24 10:10:29;;;;;;;8.17;6.30;;;20.70;88.00;;;;;;4420839;28;658956;-67
2023/03/24 10:13:20;;;;;;;10.60;6.03;;;20.50;87.60;;;;;;4418702;28;658139;-67
2023/03/24 10:16:10;;;;;;;9.03;5.50;;;20.80;80.10;;;;;;4414308;28;659224;-67
2023/03/24 10:18:59;;;;;;;10.97;6.80;;;21.10;84.10;;;;;;4422905;28;658257;-68
2023/03/24 10:21:57;;;;;;;9.07;6.40;;;21.00;73.90;;;;;;4422320;28;658324;-67
2023/03/24 10:24:47;;;;;;;10.67;6.33;;;20.50;79.10;;;;;;4421059;28;657708;-66
2023/03/24 10:27:36;;;;;;;8.10;6.00;;;20.10;74.70;;;;;;4405939;28;658776;-67
2023/03/24 10:30:26;;;;;;;8.00;5.37;;;20.70;76.10;;;;;;4404648;28;658048;-67
2023/03/24 10:33:14;;;;;;;13.60;6.17;;;21.10;73.80;;;;;;4413553;28;657850;-66
2023/03/24 10:36:02;;;;;;;10.77;6.03;;;21.40;79.10;;;;;;4420716;28;658820;-67
2023/03/24 10:38:49;;;;;;;11.30;5.93;;;21.80;69.10;;;;;;4433372;28;658567;-67
2023/03/24 10:41:37;;;;;;;7.37;5.00;;;21.80;67.40;;;;;;4418409;28;660127;-66
2023/03/24 10:44:24;;;;;;;8.57;5.70;;;21.70;65.70;;;;;;4435523;28;657753;-67
2023/03/24 10:47:13;;;;;;;13.77;6.20;;;21.50;65.90;;;;;;4402370;28;657959;-67
2023/03/24 10:50:01;;;;;;;8.60;6.10;;;20.80;64.70;;;;;;4415146;28;659367;-67
2023/03/24 10:52:49;;;;;;;8.20;5.87;;;20.70;64.40;;;;;;4437211;28;658189;-67
2023/03/24 10:55:38;;;;;;;8.93;6.17;;;20.90;65.10;;;;;;4410569;28;657450;-67
2023/03/24 10:58:29;;;;;;;13.97;6.20;;;21.10;65.70;;;;;;4396992;28;657907;-67
2023/03/24 11:01:23;;;;;;;12.10;6.50;;;21.20;66.50;;;;;;4418210;28;658691;-67
2023/03/24 11:04:13;;;;;;;10.17;6.23;;;21.40;63.00;;;;;;4406565;28;658374;-68
2023/03/24 11:07:03;;;;;;;11.33;7.70;;;21.30;63.60;;;;;;4406868;28;658682;-67
2023/03/24 11:09:58;;;;;;;8.27;6.23;;;20.90;65.40;;;;;;4404064;28;658420;-67
2023/03/24 11:13:01;;;;;;;12.23;7.40;;;21.30;66.20;;;;;;4399859;28;658279;-67
2023/03/24 11:15:56;;;;;;;11.67;7.13;;;21.30;63.90;;;;;;4411283;28;659137;-67
2023/03/24 11:18:55;;;;;;;9.10;6.20;;;21.40;67.40;;;;;;4400156;28;659540;-66
2023/03/24 11:21:44;;;;;;;9.43;6.43;;;21.30;63.70;;;;;;4391632;28;657707;-66
2023/03/24 11:24:31;;;;;;;10.47;6.90;;;21.20;65.30;;;;;;4411357;28;658443;-66
2023/03/24 11:27:18;;;;;;;12.33;6.30;;;21.60;63.00;;;;;;4431128;28;658487;-67
2023/03/24 11:30:12;;;;;;;9.73;5.57;;;22.00;61.00;;;;;;4406630;28;658482;-66
2023/03/24 11:32:59;;;;;;;9.13;5.70;;;21.70;59.80;;;;;;4418155;28;657786;-66
2023/03/24 11:35:46;;;;;;;10.40;5.77;;;21.10;57.80;;;;;;4409480;28;657591;-68
2023/03/24 11:38:35;;;;;;;9.43;5.10;;;20.90;58.80;;;;;;4438476;28;658281;-67
2023/03/24 11:41:22;;;;;;;11.77;5.50;;;21.00;59.50;;;;;;4421922;28;658312;-67
2023/03/24 11:44:20;;;;;;;8.27;5.40;;;21.00;59.70;;;;;;4433077;28;658309;-66
2023/03/24 11:47:10;;;;;;;10.87;4.50;;;20.90;60.40;;;;;;4385872;28;658879;-70
2023/03/24 11:50:07;;;;;;;12.57;5.30;;;21.00;60.70;;;;;;4411438;28;659468;-70
2023/03/24 11:52:56;;;;;;;9.40;5.07;;;20.70;58.40;;;;;;4407537;28;658639;-69
2023/03/24 11:55:48;;;;;;;8.50;5.03;;;20.80;59.30;;;;;;4413247;28;657924;-70
2023/03/24 11:58:36;;;;;;;11.27;5.30;;;20.80;59.20;;;;;;4378926;28;658768;-70
2023/03/24 12:01:27;;;;;;;6.60;4.30;;;20.50;57.10;;;;;;4420057;28;659350;-69
2023/03/24 12:04:27;;;;;;;14.90;4.50;;;20.30;58.40;;;;;;4395581;28;657760;-66
2023/03/24 12:07:39;;;;;;;7.20;4.30;;;19.90;57.80;;;;;;4412209;28;658432;-66
2023/03/24 12:10:33;;;;;;;9.63;4.30;;;20.10;55.90;;;;;;4420033;28;657274;-67
2023/03/24 12:13:26;;;;;;;9.67;3.83;;;20.00;56.40;;;;;;4404255;28;657941;-66
2023/03/24 12:16:35;;;;;;;5.77;3.40;;;19.90;55.70;;;;;;4402429;28;658400;-66
2023/03/24 12:19:44;;;;;;;9.80;3.50;;;19.80;55.60;;;;;;4405931;28;657776;-67
2023/03/24 12:22:42;;;;;;;6.53;3.10;;;19.70;55.20;;;;;;4384579;28;657904;-66
2023/03/24 12:25:43;;;;;;;6.53;3.50;;;19.60;56.30;;;;;;4415448;28;657643;-66
2023/03/24 12:28:46;;;;;;;6.93;3.83;;;19.80;56.20;;;;;;4408664;28;657994;-67
2023/03/24 12:31:49;;;;;;;7.30;4.00;;;19.90;56.00;;;;;;4413155;28;657342;-66
2023/03/24 12:34:43;;;;;;;9.73;3.77;;;19.70;55.70;;;;;;4389683;28;658189;-66
2023/03/24 12:37:33;;;;;;;6.97;3.53;;;19.80;58.10;;;;;;4394826;28;657558;-68
2023/03/24 12:40:45;;;;;;;6.93;3.40;;;20.00;57.20;;;;;;4420155;28;658474;-68
2023/03/24 12:43:38;;;;;;;6.80;3.70;;;20.10;56.80;;;;;;4389202;28;658023;-67
2023/03/24 12:46:32;;;;;;;13.27;3.93;;;20.00;55.70;;;;;;4389935;28;657355;-66
2023/03/24 12:49:26;;;;;;;7.37;3.87;;;19.90;56.00;;;;;;4407049;28;659201;-66
2023/03/24 12:52:25;;;;;;;11.80;4.00;;;20.00;55.50;;;;;;4416187;28;658669;-66
2023/03/24 12:55:16;;;;;;;6.73;4.00;;;20.10;55.60;;;;;;4391189;28;659887;-67
2023/03/24 12:58:05;;;;;;;7.47;3.90;;;20.00;55.40;;;;;;4416455;28;658868;-66
2023/03/24 13:01:01;;;;;;;10.67;4.47;;;19.70;59.00;;;;;;4417828;28;658118;-66
2023/03/24 13:03:50;;;;;;;13.93;4.30;;;19.70;56.30;;;;;;4418808;28;659365;-66
2023/03/24 13:06:38;;;;;;;6.77;3.67;;;19.50;57.30;;;;;;4410381;28;658640;-66
2023/03/24 13:09:32;;;;;;;8.00;3.70;;;19.50;55.70;;;;;;4420250;28;658021;-66
2023/03/24 13:12:20;;;;;;;6.27;4.07;;;19.60;59.30;;;;;;4415526;28;657979;-67
2023/03/24 13:15:15;;;;;;;7.90;4.00;;;19.70;57.30;;;;;;4418325;28;658416;-66
2023/03/24 13:18:12;;;;;;;9.10;3.97;;;19.60;56.10;;;;;;4392795;28;658855;-66
2023/03/24 13:21:00;;;;;;;8.30;3.63;;;19.60;58.30;;;;;;4416960;28;657840;-66
2023/03/24 13:23:53;;;;;;;8.80;4.00;;;19.50;56.80;;;;;;4408853;28;657946;-66
2023/03/24 13:26:43;;;;;;;5.57;3.57;;;19.50;56.60;;;;;;4392984;28;657084;-66
2023/03/24 13:30:00;;;;;;;10.07;3.77;;;19.30;56.00;;;;;;4426540;28;659086;-66
2023/03/24 13:32:48;;;;;;;11.30;4.17;;;19.30;56.40;;;;;;4389983;28;658773;-66
2023/03/24 13:35:59;;;;;;;6.60;4.23;;;19.10;56.40;;;;;;4422102;28;658601;-66
2023/03/24 13:38:47;;;;;;;7.47;4.20;;;19.10;57.00;;;;;;4417487;28;657839;-66
2023/03/24 13:41:38;;;;;;;8.37;4.07;;;18.90;56.90;;;;;;4428808;28;658070;-67
2023/03/24 13:44:37;;;;;;;8.20;4.25;;;19.10;58.30;;;;;;4430697;28;657777;-67
2023/03/24 13:47:25;;;;;;;8.57;4.07;;;19.10;56.90;;;;;;4418192;28;658933;-66
2023/03/24 13:50:12;;;;;;;8.37;4.30;;;19.10;58.30;;;;;;4421646;28;659038;-66
2023/03/24 13:53:05;;;;;;;9.53;4.20;;;19.10;59.20;;;;;;4439748;28;663640;-66
2023/03/24 13:55:52;;;;;;;8.50;3.90;;;19.00;57.70;;;;;;4390369;28;658038;-66
2023/03/24 13:58:49;;;;;;;6.30;3.90;;;18.80;58.60;;;;;;4436684;28;657881;-66
2023/03/24 14:01:37;;;;;;;6.77;4.27;;;18.90;59.90;;;;;;4421423;28;657472;-66
2023/03/24 14:04:28;;;;;;;8.87;4.37;;;18.90;58.40;;;;;;4449808;28;657612;-66
2023/03/24 14:07:30;;;;;;;7.97;4.50;;;18.90;59.20;;;;;;4393895;28;657751;-66
2023/03/24 14:10:46;;;;;;;7.63;4.20;;;18.90;59.70;;;;;;4415565;28;657336;-66
2023/03/24 14:13:37;;;;;;;7.77;4.40;;;18.90;58.60;;;;;;4375414;28;658464;-66
2023/03/24 14:16:41;;;;;;;12.63;4.47;;;18.90;60.50;;;;;;4435403;28;657792;-66
2023/03/24 14:19:30;;;;;;;9.87;4.53;;;18.90;60.50;;;;;;4416091;28;659067;-66
2023/03/24 14:22:22;;;;;;;10.07;4.70;;;18.90;59.70;;;;;;4423421;28;658547;-66
2023/03/24 14:25:21;;;;;;;14.07;4.60;;;18.80;59.60;;;;;;4406545;28;659613;-66
2023/03/24 14:28:20;;;;;;;9.47;4.47;;;18.80;59.70;;;;;;4413326;28;659633;-66